Observations for ALDERNEY CHANNEL IS, United Kingdom (EGJA)

EGJA 171720Z 22005KT 9999 FEW025 18/13 Q1018
EGJA 171650Z 22007KT 9999 FEW025 18/14 Q1018
EGJA 171620Z 26008KT 9999 FEW028 18/13 Q1019
EGJA 171550Z 26007KT 230V300 9999 FEW030 18/14 Q1019
EGJA 171520Z 19004KT 9999 FEW030 18/15 Q1019
EGJA 171450Z 21007KT 9999 FEW030 18/14 Q1019
EGJA 171420Z 22007KT 9999 FEW030 18/14 Q1019
EGJA 171350Z 22007KT 9999 FEW030 18/14 Q1019
EGJA 171320Z 22007KT 9999 FEW030 19/14 Q1019
EGJA 171250Z 21007KT 9999 FEW030 19/14 Q1019
EGJA 171220Z 22006KT 9999 FEW030 18/13 Q1019
EGJA 171150Z 18005KT 9999 FEW030 19/13 Q1019
EGJA 171120Z 26007KT 9999 SCT030 18/12 Q1019
EGJA 171050Z 28010KT 9999 -SHRA SCT030 16/14 Q1019  
EGJA 171020Z 23006KT 9999 FEW030 18/12 Q1019
EGJA 170950Z 26008KT 9999 VCSH SCT030 17/13 Q1019   
EGJA 170920Z 22007KT 9999 VCSH SCT015 17/11 Q1018   
EGJA 170850Z 26007KT 9999 VCSH SCT015 16/14 Q1018   
EGJA 170820Z 24008KT 9999 VCSH SCT015 16/15 Q1018   
EGJA 170750Z 26005KT 9999 FEW030 17/15 Q1018
EGJA 170720Z 23004KT 9999 FEW030 16/15 Q1018
EGJA 170650Z 22004KT 9999 FEW030 16/14 Q1018
EGJA 170620Z 22004KT 9999 FEW030 16/14 Q1018
EGJA 170550Z 22004KT 9999 FEW030 16/14 Q1018